Time;durP1;ratioP1;P1;durP2;ratioP2;P2;SDS_P1;SDS_P2;PMS_P1;PMS_P2;Temp;Humidity;BMP_temperature;BMP_pressure;BME280_temperature;BME280_humidity;BME280_pressure;Samples;Min_cycle;Max_cycle;Signal;HPM_P1;HPM_P2
2023/01/22 00:02:25;;;;;;;26.15;15.98;;;;;;;;;;5091481;28;20386;-74
2023/01/22 00:04:51;;;;;;;27.67;16.85;;;;;;;;;;5073509;28;20048;-74
2023/01/22 00:07:17;;;;;;;26.25;14.00;;;;;;;;;;5083377;28;20143;-73
2023/01/22 00:09:43;;;;;;;24.25;14.32;;;;;;;;;;5079081;28;20041;-74
2023/01/22 00:12:09;;;;;;;32.60;18.58;;;;;;;;;;5071469;28;20040;-73
2023/01/22 00:14:35;;;;;;;28.02;16.70;;;;;;;;;;5088401;28;20056;-74
2023/01/22 00:17:01;;;;;;;28.05;15.50;;;;;;;;;;5071474;28;20398;-73
2023/01/22 00:19:27;;;;;;;28.08;15.80;;;;;;;;;;5081020;28;20055;-74
2023/01/22 00:21:53;;;;;;;29.70;18.25;;;;;;;;;;5083631;28;20052;-74
2023/01/22 00:24:19;;;;;;;22.67;12.30;;;;;;;;;;5082954;28;20040;-74
2023/01/22 00:26:46;;;;;;;27.98;17.17;;;;;;;;;;5083980;28;20512;-73
2023/01/22 00:29:12;;;;;;;27.45;16.65;;;;;;;;;;5086690;28;20079;-74
2023/01/22 00:31:38;;;;;;;26.42;16.52;;;;;;;;;;5092172;28;20040;-74
2023/01/22 00:34:04;;;;;;;32.67;18.98;;;;;;;;;;5055688;28;20052;-74
2023/01/22 00:36:30;;;;;;;24.73;15.10;;;;;;;;;;5072612;28;20049;-74
2023/01/22 00:38:56;;;;;;;34.75;19.98;;;;;;;;;;5091153;28;20082;-74
2023/01/22 00:41:22;;;;;;;32.35;17.33;;;;;;;;;;5092905;28;20040;-74
2023/01/22 00:43:49;;;;;;;33.30;19.15;;;;;;;;;;5092763;28;20048;-74
2023/01/22 00:46:15;;;;;;;33.97;19.67;;;;;;;;;;5083353;28;20083;-73
2023/01/22 00:48:44;;;;;;;32.30;19.27;;;;;;;;;;5077861;28;20032;-75
2023/01/22 00:51:11;;;;;;;33.10;20.90;;;;;;;;;;5081536;28;20063;-73
2023/01/22 00:53:40;;;;;;;37.83;21.17;;;;;;;;;;5071722;28;20110;-71
2023/01/22 00:56:06;;;;;;;35.97;21.45;;;;;;;;;;5075137;28;20448;-72
2023/01/22 00:58:32;;;;;;;30.92;19.35;;;;;;;;;;5086167;28;20036;-71
2023/01/22 01:01:01;;;;;;;33.65;21.10;;;;;;;;;;5090514;28;20036;-71
2023/01/22 01:03:29;;;;;;;36.67;20.73;;;;;;;;;;5071355;28;20048;-72
2023/01/22 01:05:55;;;;;;;33.30;18.90;;;;;;;;;;5077810;28;20546;-71
2023/01/22 01:08:21;;;;;;;29.80;19.13;;;;;;;;;;5083313;28;20405;-71
2023/01/22 01:10:47;;;;;;;28.67;17.58;;;;;;;;;;5078085;28;20400;-71
2023/01/22 01:13:14;;;;;;;34.53;18.52;;;;;;;;;;5095724;28;20047;-73
2023/01/22 01:15:40;;;;;;;31.63;19.08;;;;;;;;;;5094274;28;20101;-71
2023/01/22 01:18:11;;;;;;;33.08;19.02;;;;;;;;;;5081933;28;20058;-71
2023/01/22 01:20:37;;;;;;;30.25;17.77;;;;;;;;;;5079424;28;20471;-71
2023/01/22 01:23:03;;;;;;;32.42;18.45;;;;;;;;;;5083062;28;20059;-71
2023/01/22 01:25:29;;;;;;;32.05;20.00;;;;;;;;;;5085489;28;20509;-72
2023/01/22 01:27:55;;;;;;;35.25;19.55;;;;;;;;;;5086911;28;20118;-72
2023/01/22 01:30:22;;;;;;;34.45;19.60;;;;;;;;;;5090682;28;20044;-72
2023/01/22 01:32:48;;;;;;;34.97;21.45;;;;;;;;;;5095541;28;20051;-71
2023/01/22 01:35:14;;;;;;;39.05;20.77;;;;;;;;;;5095776;28;20048;-72
2023/01/22 01:37:40;;;;;;;33.63;20.88;;;;;;;;;;5094453;28;20036;-72
2023/01/22 01:40:07;;;;;;;32.10;20.58;;;;;;;;;;5074349;28;20047;-71
2023/01/22 01:42:34;;;;;;;32.33;19.48;;;;;;;;;;5041086;28;20051;-73
2023/01/22 01:45:19;;;;;;;34.03;20.77;;;;;;;;;;5075170;28;20487;-74
2023/01/22 01:47:45;;;;;;;30.83;17.42;;;;;;;;;;5057293;28;20483;-73
2023/01/22 01:50:12;;;;;;;29.50;14.95;;;;;;;;;;5075331;28;20051;-73
2023/01/22 01:52:38;;;;;;;26.25;17.33;;;;;;;;;;5075244;28;20036;-74
2023/01/22 01:55:05;;;;;;;23.90;14.82;;;;;;;;;;5091331;28;20044;-73
2023/01/22 01:57:32;;;;;;;19.73;10.85;;;;;;;;;;5087885;28;20044;-74
2023/01/22 01:59:58;;;;;;;28.10;16.48;;;;;;;;;;5059432;28;20044;-72
2023/01/22 02:02:24;;;;;;;26.38;15.88;;;;;;;;;;5077752;28;20052;-72
2023/01/22 02:04:50;;;;;;;21.83;13.65;;;;;;;;;;5082744;28;20051;-71
2023/01/22 02:07:17;;;;;;;24.15;16.40;;;;;;;;;;5079453;28;20115;-71
2023/01/22 02:09:43;;;;;;;24.80;14.05;;;;;;;;;;5081549;28;20041;-71
2023/01/22 02:12:09;;;;;;;22.42;13.38;;;;;;;;;;5083843;28;20040;-72
2023/01/22 02:14:38;;;;;;;19.85;10.68;;;;;;;;;;5056392;28;20102;-72
2023/01/22 02:17:12;;;;;;;14.40;9.65;;;;;;;;;;5086644;28;20090;-72
2023/01/22 02:19:38;;;;;;;19.55;10.40;;;;;;;;;;5077836;28;20045;-72
2023/01/22 02:22:12;;;;;;;15.75;10.27;;;;;;;;;;5079831;28;20280;-72
2023/01/22 02:24:38;;;;;;;16.42;9.95;;;;;;;;;;5092029;28;20040;-74
2023/01/22 02:27:04;;;;;;;14.57;8.70;;;;;;;;;;5085956;28;20094;-72
2023/01/22 02:29:30;;;;;;;17.65;10.80;;;;;;;;;;5084780;28;20048;-72
2023/01/22 02:31:56;;;;;;;19.30;10.48;;;;;;;;;;5095642;28;20048;-74
2023/01/22 02:34:25;;;;;;;17.33;10.70;;;;;;;;;;5092906;28;20079;-78
2023/01/22 02:36:52;;;;;;;16.83;10.65;;;;;;;;;;5078446;28;20174;-71
2023/01/22 02:39:18;;;;;;;18.25;11.15;;;;;;;;;;5088842;28;20040;-72
2023/01/22 02:41:44;;;;;;;17.02;10.30;;;;;;;;;;5078214;28;20052;-71
2023/01/22 02:44:10;;;;;;;15.27;9.63;;;;;;;;;;5084528;28;20133;-72
2023/01/22 02:46:36;;;;;;;14.15;9.32;;;;;;;;;;5092005;28;20506;-72
2023/01/22 02:49:02;;;;;;;13.00;8.55;;;;;;;;;;5091590;28;20044;-72
2023/01/22 02:51:28;;;;;;;12.27;7.38;;;;;;;;;;5091034;28;20055;-71
2023/01/22 02:53:54;;;;;;;12.65;8.38;;;;;;;;;;5091040;28;20044;-72
2023/01/22 02:56:21;;;;;;;15.13;9.93;;;;;;;;;;5062977;28;20079;-73
2023/01/22 02:58:47;;;;;;;11.88;8.02;;;;;;;;;;5069348;28;20524;-72
2023/01/22 03:01:21;;;;;;;13.98;8.23;;;;;;;;;;5073411;28;20071;-72
2023/01/22 03:03:58;;;;;;;10.75;7.03;;;;;;;;;;5078240;28;20053;-73
2023/01/22 03:06:25;;;;;;;12.43;7.63;;;;;;;;;;5073040;28;20041;-73
2023/01/22 03:08:56;;;;;;;13.05;8.15;;;;;;;;;;5075480;28;20537;-73
2023/01/22 03:11:22;;;;;;;10.47;6.60;;;;;;;;;;5079098;28;20036;-72
2023/01/22 03:22:03;;;;;;;13.38;9.15;;;;;;;;;;5084650;28;20055;-73
2023/01/22 03:24:29;;;;;;;15.30;8.38;;;;;;;;;;5091682;28;20048;-73
2023/01/22 03:26:55;;;;;;;13.25;8.35;;;;;;;;;;5078046;28;20523;-73
2023/01/22 03:29:21;;;;;;;14.50;8.15;;;;;;;;;;5090128;28;20466;-73
2023/01/22 03:31:47;;;;;;;11.85;8.43;;;;;;;;;;5081467;28;20475;-73
2023/01/22 03:34:17;;;;;;;13.35;8.02;;;;;;;;;;5080170;28;20410;-73
2023/01/22 03:36:44;;;;;;;11.85;7.47;;;;;;;;;;5078973;28;20040;-73
2023/01/22 03:39:10;;;;;;;13.15;7.93;;;;;;;;;;5076137;28;20117;-72
2023/01/22 03:41:36;;;;;;;14.80;8.23;;;;;;;;;;5080504;28;20036;-73
2023/01/22 03:44:03;;;;;;;12.88;7.78;;;;;;;;;;5091041;28;20040;-73
2023/01/22 03:46:29;;;;;;;11.68;6.93;;;;;;;;;;5090462;28;20044;-72
2023/01/22 03:48:55;;;;;;;12.60;7.90;;;;;;;;;;5073372;28;20047;-72
2023/01/22 03:51:22;;;;;;;11.48;7.20;;;;;;;;;;5076243;28;20441;-73
2023/01/22 03:53:48;;;;;;;12.55;7.63;;;;;;;;;;5078935;28;20490;-73
2023/01/22 03:56:17;;;;;;;13.18;8.18;;;;;;;;;;5093022;28;20048;-73
2023/01/22 03:58:44;;;;;;;12.70;7.53;;;;;;;;;;5073017;28;20041;-72
2023/01/22 04:01:11;;;;;;;13.98;6.28;;;;;;;;;;5077976;28;20387;-72
2023/01/22 04:03:37;;;;;;;11.05;7.00;;;;;;;;;;5091630;28;20123;-72
2023/01/22 04:06:04;;;;;;;10.20;5.43;;;;;;;;;;5077374;28;20048;-74
2023/01/22 04:08:31;;;;;;;10.60;7.50;;;;;;;;;;5072453;28;20091;-73
2023/01/22 04:10:57;;;;;;;11.82;7.07;;;;;;;;;;5087689;28;20501;-73
2023/01/22 04:13:24;;;;;;;10.60;7.28;;;;;;;;;;5087221;28;20057;-72
2023/01/22 04:15:51;;;;;;;12.25;6.63;;;;;;;;;;5072318;28;20047;-72
2023/01/22 04:18:17;;;;;;;11.73;7.55;;;;;;;;;;5080745;28;20048;-72
2023/01/22 04:20:43;;;;;;;10.68;7.72;;;;;;;;;;5078031;28;20055;-74
2023/01/22 04:23:09;;;;;;;13.80;7.45;;;;;;;;;;5071609;28;20455;-72
2023/01/22 04:25:35;;;;;;;10.55;6.45;;;;;;;;;;5077653;28;20043;-73
2023/01/22 04:28:02;;;;;;;11.00;7.35;;;;;;;;;;5087370;28;20048;-73
2023/01/22 04:30:28;;;;;;;10.65;7.18;;;;;;;;;;5078671;28;20604;-72
2023/01/22 04:32:54;;;;;;;11.20;7.47;;;;;;;;;;5063419;28;20040;-72
2023/01/22 04:35:20;;;;;;;11.57;7.25;;;;;;;;;;5072189;28;20098;-73
2023/01/22 04:37:46;;;;;;;10.23;6.68;;;;;;;;;;5082305;28;20040;-72
2023/01/22 04:40:12;;;;;;;9.88;5.63;;;;;;;;;;5077147;28;20092;-72
2023/01/22 04:42:38;;;;;;;9.00;6.43;;;;;;;;;;5080986;28;20508;-73
2023/01/22 04:45:05;;;;;;;7.97;5.40;;;;;;;;;;5095285;28;20052;-72
2023/01/22 04:47:31;;;;;;;8.50;6.80;;;;;;;;;;5084843;28;20098;-73
2023/01/22 04:49:57;;;;;;;10.68;7.30;;;;;;;;;;5083959;28;20052;-73
2023/01/22 04:52:23;;;;;;;8.45;6.88;;;;;;;;;;5078958;28;20155;-73
2023/01/22 04:54:52;;;;;;;9.32;5.85;;;;;;;;;;5081673;28;20048;-72
2023/01/22 04:57:18;;;;;;;8.57;6.18;;;;;;;;;;5085454;28;20113;-74
2023/01/22 04:59:44;;;;;;;10.57;7.00;;;;;;;;;;5093942;28;20051;-72
2023/01/22 05:02:10;;;;;;;9.63;6.20;;;;;;;;;;5069256;28;20044;-73
2023/01/22 05:04:36;;;;;;;10.55;7.30;;;;;;;;;;5081575;28;20044;-72
2023/01/22 05:07:02;;;;;;;10.75;7.20;;;;;;;;;;5081164;28;20560;-72
2023/01/22 05:09:29;;;;;;;9.27;6.43;;;;;;;;;;5091290;28;20044;-72
2023/01/22 05:11:55;;;;;;;8.57;6.10;;;;;;;;;;5080932;28;20100;-72
2023/01/22 05:14:21;;;;;;;12.57;7.50;;;;;;;;;;5060164;28;20494;-72
2023/01/22 05:16:48;;;;;;;12.63;6.70;;;;;;;;;;5082376;28;20406;-73
2023/01/22 05:19:14;;;;;;;9.77;6.55;;;;;;;;;;5081779;28;20048;-73
2023/01/22 05:21:40;;;;;;;9.82;5.93;;;;;;;;;;5094105;28;20044;-73
2023/01/22 05:24:06;;;;;;;10.15;7.47;;;;;;;;;;5088647;28;20055;-72
2023/01/22 05:26:32;;;;;;;6.40;4.43;;;;;;;;;;5087536;28;20040;-72
2023/01/22 05:28:58;;;;;;;8.23;5.63;;;;;;;;;;5070812;28;20105;-73
2023/01/22 05:31:24;;;;;;;11.48;6.82;;;;;;;;;;5089832;28;20044;-73
2023/01/22 05:33:50;;;;;;;10.50;7.07;;;;;;;;;;5086145;28;20036;-72
2023/01/22 05:36:16;;;;;;;7.25;5.75;;;;;;;;;;5090210;28;20452;-73
2023/01/22 05:38:42;;;;;;;10.60;6.82;;;;;;;;;;5080687;28;20040;-73
2023/01/22 05:41:08;;;;;;;7.55;5.05;;;;;;;;;;5085066;28;20097;-73
2023/01/22 05:43:37;;;;;;;11.13;6.47;;;;;;;;;;5071045;28;20045;-72
2023/01/22 05:46:03;;;;;;;9.38;6.13;;;;;;;;;;5083286;28;20070;-72
2023/01/22 05:48:31;;;;;;;12.70;6.97;;;;;;;;;;5069193;28;20394;-73
2023/01/22 05:50:57;;;;;;;10.15;6.65;;;;;;;;;;5086759;28;20083;-72
2023/01/22 05:53:23;;;;;;;10.38;6.80;;;;;;;;;;5093634;28;20124;-72
2023/01/22 05:55:49;;;;;;;11.23;7.15;;;;;;;;;;5087479;28;20056;-72
2023/01/22 05:58:15;;;;;;;10.52;7.10;;;;;;;;;;5075002;28;20048;-73
2023/01/22 06:00:41;;;;;;;8.52;4.97;;;;;;;;;;5080614;28;20051;-72
2023/01/22 06:03:07;;;;;;;12.57;8.10;;;;;;;;;;5094385;28;20052;-73
2023/01/22 06:05:33;;;;;;;10.77;7.70;;;;;;;;;;5080595;28;20059;-73
2023/01/22 06:07:59;;;;;;;11.38;7.35;;;;;;;;;;5080134;28;20551;-73
2023/01/22 06:10:25;;;;;;;15.07;7.63;;;;;;;;;;5057747;28;20063;-73
2023/01/22 06:12:51;;;;;;;11.43;7.35;;;;;;;;;;5090106;28;20036;-73
2023/01/22 06:15:18;;;;;;;10.32;7.70;;;;;;;;;;5074959;28;20039;-72
2023/01/22 06:17:44;;;;;;;9.77;7.63;;;;;;;;;;5075562;28;20063;-73
2023/01/22 06:20:10;;;;;;;9.32;7.15;;;;;;;;;;5074446;28;20044;-73
2023/01/22 06:22:36;;;;;;;8.85;6.63;;;;;;;;;;5088872;28;20048;-72
2023/01/22 06:25:02;;;;;;;13.70;8.40;;;;;;;;;;5080130;28;20036;-73
2023/01/22 06:27:28;;;;;;;11.38;8.10;;;;;;;;;;5062676;28;20101;-73
2023/01/22 06:29:54;;;;;;;9.95;6.40;;;;;;;;;;5083681;28;20044;-73
2023/01/22 06:32:20;;;;;;;11.68;7.18;;;;;;;;;;5076358;28;20388;-73
2023/01/22 06:34:46;;;;;;;11.57;7.53;;;;;;;;;;5084732;28;20036;-72
2023/01/22 06:37:13;;;;;;;12.48;7.60;;;;;;;;;;5069046;28;20051;-72
2023/01/22 06:39:39;;;;;;;12.65;7.53;;;;;;;;;;5079108;28;20167;-73
2023/01/22 06:42:05;;;;;;;9.88;7.70;;;;;;;;;;5086684;28;20490;-73
2023/01/22 06:44:31;;;;;;;11.93;7.60;;;;;;;;;;5081374;28;20036;-73
2023/01/22 06:46:57;;;;;;;10.88;6.40;;;;;;;;;;5084530;28;20058;-72
2023/01/22 06:49:23;;;;;;;12.43;7.43;;;;;;;;;;5088732;28;20090;-72
2023/01/22 06:51:49;;;;;;;10.93;6.05;;;;;;;;;;5076320;28;20066;-73
2023/01/22 06:54:15;;;;;;;8.30;6.47;;;;;;;;;;5089856;28;20040;-74
2023/01/22 06:56:41;;;;;;;10.70;7.55;;;;;;;;;;5079068;28;20094;-74
2023/01/22 06:59:07;;;;;;;11.02;7.93;;;;;;;;;;5077921;28;20040;-74
2023/01/22 07:01:33;;;;;;;10.07;8.38;;;;;;;;;;5081565;28;20398;-73
2023/01/22 07:03:59;;;;;;;11.27;8.40;;;;;;;;;;5056170;28;20056;-74
2023/01/22 07:06:25;;;;;;;10.45;8.40;;;;;;;;;;5074457;28;20047;-73
2023/01/22 07:08:52;;;;;;;11.05;8.32;;;;;;;;;;5072898;28;20052;-74
2023/01/22 07:11:19;;;;;;;12.85;8.05;;;;;;;;;;5088564;28;20094;-74
2023/01/22 07:13:45;;;;;;;12.77;9.35;;;;;;;;;;5079154;28;20040;-73
2023/01/22 07:16:11;;;;;;;14.88;9.95;;;;;;;;;;5081107;28;20063;-74
2023/01/22 07:18:37;;;;;;;12.82;8.80;;;;;;;;;;5081606;28;20043;-74
2023/01/22 07:21:04;;;;;;;11.20;8.57;;;;;;;;;;5087921;28;20040;-74
2023/01/22 07:23:30;;;;;;;11.48;8.45;;;;;;;;;;5091213;28;20036;-74
2023/01/22 07:25:57;;;;;;;11.98;8.75;;;;;;;;;;5087920;28;20047;-74
2023/01/22 07:28:24;;;;;;;12.40;7.70;;;;;;;;;;5075721;28;20109;-74
2023/01/22 07:30:50;;;;;;;11.77;7.30;;;;;;;;;;5058804;28;20048;-74
2023/01/22 07:33:17;;;;;;;10.10;7.75;;;;;;;;;;5091993;28;20129;-74
2023/01/22 07:35:43;;;;;;;10.88;8.45;;;;;;;;;;5079303;28;20049;-74
2023/01/22 07:38:09;;;;;;;10.95;7.57;;;;;;;;;;5084642;28;20052;-78
2023/01/22 07:40:35;;;;;;;12.90;9.02;;;;;;;;;;5058593;28;20123;-75
2023/01/22 07:43:04;;;;;;;13.80;8.95;;;;;;;;;;5091456;28;20098;-76
2023/01/22 07:45:30;;;;;;;10.18;8.60;;;;;;;;;;5091198;28;20043;-75
2023/01/22 07:47:57;;;;;;;11.45;9.13;;;;;;;;;;5087878;28;20044;-75
2023/01/22 07:50:27;;;;;;;13.73;9.20;;;;;;;;;;5085177;28;20074;-74
2023/01/22 07:52:54;;;;;;;12.00;9.32;;;;;;;;;;5091769;28;20044;-74
2023/01/22 07:55:20;;;;;;;9.95;6.28;;;;;;;;;;5074529;28;20053;-74
2023/01/22 07:57:46;;;;;;;12.27;8.27;;;;;;;;;;5074147;28;20073;-74
2023/01/22 08:00:14;;;;;;;10.55;7.43;;;;;;;;;;5079784;28;20071;-74
2023/01/22 08:02:41;;;;;;;13.77;9.82;;;;;;;;;;5078538;28;20571;-74
2023/01/22 08:05:08;;;;;;;11.95;9.43;;;;;;;;;;5078499;28;20048;-74
2023/01/22 08:07:34;;;;;;;12.80;9.82;;;;;;;;;;5080512;28;20041;-74
2023/01/22 08:10:00;;;;;;;13.20;8.40;;;;;;;;;;5081091;28;20148;-74
2023/01/22 08:12:26;;;;;;;11.50;8.30;;;;;;;;;;5082945;28;20094;-73
2023/01/22 08:14:52;;;;;;;11.85;7.80;;;;;;;;;;5078723;28;20057;-74
2023/01/22 08:17:18;;;;;;;10.70;7.32;;;;;;;;;;5062871;28;20051;-73
2023/01/22 08:19:44;;;;;;;12.30;8.30;;;;;;;;;;5081624;28;20052;-73
2023/01/22 08:22:10;;;;;;;12.45;9.02;;;;;;;;;;5074853;28;20056;-74
2023/01/22 08:24:36;;;;;;;12.32;9.40;;;;;;;;;;5085092;28;20383;-73
2023/01/22 08:27:02;;;;;;;12.70;8.95;;;;;;;;;;5082909;28;20040;-74
2023/01/22 08:29:28;;;;;;;12.13;8.68;;;;;;;;;;5061338;28;20071;-73
2023/01/22 08:31:54;;;;;;;10.32;6.47;;;;;;;;;;5080897;28;20048;-74
2023/01/22 08:34:21;;;;;;;9.90;6.57;;;;;;;;;;5092204;28;20514;-74
2023/01/22 08:36:47;;;;;;;11.10;8.32;;;;;;;;;;5060973;28;20041;-74
2023/01/22 08:39:13;;;;;;;11.38;9.20;;;;;;;;;;5083670;28;20052;-73
2023/01/22 08:41:40;;;;;;;12.05;8.70;;;;;;;;;;5091824;28;20421;-74
2023/01/22 08:44:06;;;;;;;13.43;9.25;;;;;;;;;;5080087;28;20047;-73
2023/01/22 08:46:34;;;;;;;10.93;7.82;;;;;;;;;;5081955;28;20040;-73
2023/01/22 08:49:02;;;;;;;11.63;9.35;;;;;;;;;;5080209;28;20055;-76
2023/01/22 08:51:28;;;;;;;11.07;9.48;;;;;;;;;;5083956;28;20032;-77
2023/01/22 08:53:54;;;;;;;10.93;7.82;;;;;;;;;;5070745;28;20040;-73
2023/01/22 08:56:21;;;;;;;10.60;7.72;;;;;;;;;;5090457;28;20051;-75
2023/01/22 08:58:51;;;;;;;11.45;8.13;;;;;;;;;;5088311;28;20044;-77
2023/01/22 09:01:18;;;;;;;14.07;9.48;;;;;;;;;;5088517;28;20056;-74
2023/01/22 09:03:44;;;;;;;11.95;7.50;;;;;;;;;;5075433;28;20127;-73
2023/01/22 09:06:10;;;;;;;12.27;9.43;;;;;;;;;;5088159;28;20105;-73
2023/01/22 09:08:36;;;;;;;11.45;7.30;;;;;;;;;;5086164;28;20048;-74
2023/01/22 09:11:06;;;;;;;11.10;8.52;;;;;;;;;;5089351;28;20048;-74
2023/01/22 09:13:32;;;;;;;10.90;7.65;;;;;;;;;;5086882;28;20056;-73
2023/01/22 09:15:58;;;;;;;8.43;6.30;;;;;;;;;;5091278;28;20459;-74
2023/01/22 09:18:24;;;;;;;11.27;7.43;;;;;;;;;;5084191;28;20050;-74
2023/01/22 09:20:50;;;;;;;13.35;7.85;;;;;;;;;;5090564;28;20135;-80
2023/01/22 09:23:16;;;;;;;13.45;8.00;;;;;;;;;;5076671;28;20048;-77
2023/01/22 09:25:42;;;;;;;9.75;7.90;;;;;;;;;;5074132;28;20074;-73
2023/01/22 09:28:11;;;;;;;10.82;8.32;;;;;;;;;;5083397;28;20109;-74
2023/01/22 09:30:39;;;;;;;12.50;8.57;;;;;;;;;;5084001;28;20066;-74
2023/01/22 09:33:05;;;;;;;11.40;8.60;;;;;;;;;;5088793;28;20050;-78
2023/01/22 09:35:31;;;;;;;13.60;9.95;;;;;;;;;;5086273;28;20057;-79
2023/01/22 09:37:57;;;;;;;10.50;6.80;;;;;;;;;;5093888;28;20113;-75
2023/01/22 09:40:30;;;;;;;11.55;8.32;;;;;;;;;;5093502;28;20048;-74
2023/01/22 09:43:07;;;;;;;11.82;7.25;;;;;;;;;;5081718;28;20052;-74
2023/01/22 09:45:37;;;;;;;11.98;8.77;;;;;;;;;;5082745;28;20417;-74
2023/01/22 09:48:06;;;;;;;12.63;7.20;;;;;;;;;;5081141;28;20051;-74
2023/01/22 09:50:34;;;;;;;11.68;9.38;;;;;;;;;;5084807;28;20093;-74
2023/01/22 09:53:01;;;;;;;15.13;9.20;;;;;;;;;;5086237;28;20059;-74
2023/01/22 09:55:29;;;;;;;11.73;8.70;;;;;;;;;;5090586;28;20048;-74
2023/01/22 09:57:56;;;;;;;12.82;9.27;;;;;;;;;;5092272;28;20063;-74
2023/01/22 10:00:39;;;;;;;12.20;7.95;;;;;;;;;;5074415;28;20040;-74
2023/01/22 10:03:17;;;;;;;13.35;8.88;;;;;;;;;;5072092;28;20060;-74
2023/01/22 10:05:48;;;;;;;11.05;8.25;;;;;;;;;;5067589;28;20067;-74
2023/01/22 10:08:17;;;;;;;15.05;9.60;;;;;;;;;;5068153;28;20063;-74
2023/01/22 10:10:43;;;;;;;16.48;7.55;;;;;;;;;;5064321;28;20428;-74
2023/01/22 10:13:12;;;;;;;12.18;9.82;;;;;;;;;;5065459;28;20056;-74
2023/01/22 10:15:39;;;;;;;13.38;8.07;;;;;;;;;;5070089;28;20491;-74
2023/01/22 10:18:16;;;;;;;11.35;8.60;;;;;;;;;;5069356;28;20053;-73
2023/01/22 10:20:42;;;;;;;10.32;7.45;;;;;;;;;;5066800;28;20057;-74
2023/01/22 10:23:16;;;;;;;10.70;7.53;;;;;;;;;;5063780;28;20056;-72
2023/01/22 10:25:42;;;;;;;11.65;8.38;;;;;;;;;;5059787;28;20082;-71
2023/01/22 10:28:08;;;;;;;12.68;8.80;;;;;;;;;;5063954;28;20049;-71
2023/01/22 10:30:44;;;;;;;11.98;8.38;;;;;;;;;;5062086;28;20773;-72
2023/01/22 10:33:16;;;;;;;11.88;10.15;;;;;;;;;;5066502;28;20036;-72
2023/01/22 10:35:45;;;;;;;10.75;7.22;;;;;;;;;;5065568;28;20076;-73
2023/01/22 10:38:25;;;;;;;11.40;8.70;;;;;;;;;;5064721;28;20032;-72
2023/01/22 10:40:52;;;;;;;12.25;7.88;;;;;;;;;;5066626;28;20056;-77
2023/01/22 10:43:18;;;;;;;12.88;9.27;;;;;;;;;;5064084;28;20056;-73
2023/01/22 10:45:52;;;;;;;12.05;10.13;;;;;;;;;;5065387;28;20055;-73
2023/01/22 10:48:18;;;;;;;11.52;9.07;;;;;;;;;;5061891;28;20045;-73
2023/01/22 10:50:45;;;;;;;14.43;9.50;;;;;;;;;;5068933;28;20056;-73
2023/01/22 10:53:28;;;;;;;13.80;9.98;;;;;;;;;;5073360;28;20041;-73
2023/01/22 10:55:56;;;;;;;11.88;9.55;;;;;;;;;;5070521;28;20098;-74
2023/01/22 10:58:24;;;;;;;15.07;9.43;;;;;;;;;;5073082;28;20044;-77
2023/01/22 11:00:59;;;;;;;12.63;9.93;;;;;;;;;;5062730;28;20102;-74
2023/01/22 11:03:43;;;;;;;15.05;9.65;;;;;;;;;;5079412;28;20375;-74
2023/01/22 11:06:12;;;;;;;10.50;8.07;;;;;;;;;;5072632;28;20052;-74
2023/01/22 11:08:50;;;;;;;13.60;9.13;;;;;;;;;;5052981;28;20455;-74
2023/01/22 11:11:18;;;;;;;13.25;9.43;;;;;;;;;;5089167;28;20048;-75
2023/01/22 11:13:44;;;;;;;11.73;8.65;;;;;;;;;;5082949;28;20405;-73
2023/01/22 11:16:17;;;;;;;13.65;9.68;;;;;;;;;;5081925;28;20501;-73
2023/01/22 11:18:54;;;;;;;15.32;8.65;;;;;;;;;;5063090;28;20116;-73
2023/01/22 11:21:23;;;;;;;12.90;9.48;;;;;;;;;;5077240;28;20044;-73
2023/01/22 11:23:59;;;;;;;12.38;9.00;;;;;;;;;;5085102;28;20032;-74
2023/01/22 11:26:51;;;;;;;14.02;8.90;;;;;;;;;;5077326;28;20048;-73
2023/01/22 11:29:37;;;;;;;13.10;10.20;;;;;;;;;;5077855;28;20036;-73
2023/01/22 11:32:21;;;;;;;13.77;9.60;;;;;;;;;;5049407;28;20421;-73
2023/01/22 11:34:57;;;;;;;13.43;8.38;;;;;;;;;;5062236;28;20048;-73
2023/01/22 11:37:42;;;;;;;11.85;8.77;;;;;;;;;;5079692;28;20044;-73
2023/01/22 11:40:31;;;;;;;12.27;8.23;;;;;;;;;;5082082;28;20513;-73
2023/01/22 11:43:00;;;;;;;15.35;9.10;;;;;;;;;;5068418;28;20044;-73
2023/01/22 11:45:30;;;;;;;14.30;9.23;;;;;;;;;;5081243;28;20040;-73
2023/01/22 11:48:08;;;;;;;13.55;9.10;;;;;;;;;;5082977;28;20040;-73
2023/01/22 11:50:39;;;;;;;13.25;9.27;;;;;;;;;;5085297;28;20040;-73
2023/01/22 11:53:24;;;;;;;17.98;9.43;;;;;;;;;;5084444;28;20543;-73
2023/01/22 11:55:55;;;;;;;11.68;8.85;;;;;;;;;;5083973;28;20070;-73
2023/01/22 11:58:21;;;;;;;13.50;9.73;;;;;;;;;;5079350;28;20052;-73
2023/01/22 12:01:08;;;;;;;14.38;9.98;;;;;;;;;;5081966;28;20039;-73
2023/01/22 12:03:44;;;;;;;17.60;9.82;;;;;;;;;;5079586;28;20094;-73
2023/01/22 12:06:14;;;;;;;14.20;9.95;;;;;;;;;;5062354;28;20084;-73
2023/01/22 12:08:55;;;;;;;13.18;9.95;;;;;;;;;;5082633;28;20059;-73
2023/01/22 12:11:41;;;;;;;12.90;9.43;;;;;;;;;;5081217;28;20059;-73
2023/01/22 12:14:20;;;;;;;13.63;9.75;;;;;;;;;;5028719;28;20072;-73
2023/01/22 12:16:51;;;;;;;12.80;8.32;;;;;;;;;;5085148;28;20560;-73
2023/01/22 12:19:17;;;;;;;15.48;9.68;;;;;;;;;;5088391;28;20132;-73
2023/01/22 12:21:44;;;;;;;13.55;9.02;;;;;;;;;;5054310;28;20057;-73
2023/01/22 12:24:18;;;;;;;13.68;9.68;;;;;;;;;;5071910;28;20113;-74
2023/01/22 12:27:16;;;;;;;13.10;8.95;;;;;;;;;;5076590;28;20368;-73
2023/01/22 12:29:45;;;;;;;11.27;7.65;;;;;;;;;;5007612;28;20042;-73
2023/01/22 12:32:14;;;;;;;12.35;8.68;;;;;;;;;;4993669;28;20057;-73
2023/01/22 12:35:04;;;;;;;13.05;9.38;;;;;;;;;;5004280;28;20046;-73
2023/01/22 12:37:56;;;;;;;15.52;9.57;;;;;;;;;;4990479;28;20079;-73
2023/01/22 12:40:30;;;;;;;13.05;6.72;;;;;;;;;;4967178;28;20057;-73
2023/01/22 12:43:06;;;;;;;14.18;9.02;;;;;;;;;;4974325;28;21195;-73
2023/01/22 12:45:50;;;;;;;13.05;8.73;;;;;;;;;;4990202;28;20050;-74
2023/01/22 12:48:37;;;;;;;13.20;8.55;;;;;;;;;;4991874;28;20054;-73
2023/01/22 12:51:03;;;;;;;14.57;8.35;;;;;;;;;;5009966;28;20080;-73
2023/01/22 12:53:33;;;;;;;14.10;9.00;;;;;;;;;;5004514;28;20054;-74
2023/01/22 12:56:09;;;;;;;13.93;8.40;;;;;;;;;;4993117;28;20050;-75
2023/01/22 12:58:36;;;;;;;13.48;8.85;;;;;;;;;;5013868;28;20054;-75
2023/01/22 13:01:23;;;;;;;13.18;8.95;;;;;;;;;;5013171;28;20046;-74
2023/01/22 13:04:00;;;;;;;14.40;7.75;;;;;;;;;;4974755;28;20063;-74
2023/01/22 13:06:29;;;;;;;14.05;8.63;;;;;;;;;;5088885;28;20142;-74
2023/01/22 13:08:55;;;;;;;16.52;9.00;;;;;;;;;;5087493;28;20049;-76
2023/01/22 13:11:30;;;;;;;11.43;8.10;;;;;;;;;;5083197;28;20520;-74
2023/01/22 13:14:06;;;;;;;13.95;8.23;;;;;;;;;;5094988;28;20198;-75
2023/01/22 13:16:33;;;;;;;14.70;9.18;;;;;;;;;;5094796;28;20052;-73
2023/01/22 13:19:00;;;;;;;12.50;7.88;;;;;;;;;;5077194;28;20417;-74
2023/01/22 13:21:27;;;;;;;16.02;8.13;;;;;;;;;;5095220;28;20052;-73
2023/01/22 13:23:57;;;;;;;11.85;7.70;;;;;;;;;;5094599;28;20567;-73
2023/01/22 13:26:25;;;;;;;15.52;8.88;;;;;;;;;;5095254;28;20418;-73
2023/01/22 13:28:56;;;;;;;15.73;8.70;;;;;;;;;;5094882;28;20044;-73
2023/01/22 13:31:22;;;;;;;12.18;8.25;;;;;;;;;;5094143;28;20036;-73
2023/01/22 13:33:59;;;;;;;14.80;9.43;;;;;;;;;;5095180;28;20059;-73
2023/01/22 13:36:26;;;;;;;11.15;7.57;;;;;;;;;;5094102;28;20044;-73
2023/01/22 13:38:56;;;;;;;14.48;9.70;;;;;;;;;;5087850;28;20164;-73
2023/01/22 13:41:29;;;;;;;10.07;6.43;;;;;;;;;;5094490;28;20069;-73
2023/01/22 13:43:56;;;;;;;12.18;8.48;;;;;;;;;;5083022;28;20044;-74
2023/01/22 13:46:22;;;;;;;15.73;8.02;;;;;;;;;;5068132;28;20080;-73
2023/01/22 13:48:48;;;;;;;16.90;8.73;;;;;;;;;;5091716;28;20056;-73
2023/01/22 13:51:19;;;;;;;15.45;9.15;;;;;;;;;;5081449;28;20417;-73
2023/01/22 13:53:48;;;;;;;15.77;7.90;;;;;;;;;;5086381;28;20043;-73
2023/01/22 13:56:18;;;;;;;15.75;7.90;;;;;;;;;;5092394;28;20074;-73
2023/01/22 13:58:44;;;;;;;13.75;8.15;;;;;;;;;;5086408;28;20387;-73
2023/01/22 14:01:11;;;;;;;17.33;7.80;;;;;;;;;;5087849;28;20044;-74
2023/01/22 14:03:38;;;;;;;15.55;8.27;;;;;;;;;;5090357;28;20059;-73
2023/01/22 14:06:09;;;;;;;12.55;7.68;;;;;;;;;;5075968;28;20041;-74
2023/01/22 14:08:51;;;;;;;15.60;7.97;;;;;;;;;;5039228;28;20056;-73
2023/01/22 14:11:18;;;;;;;13.15;7.07;;;;;;;;;;5076528;28;20041;-73
2023/01/22 14:13:45;;;;;;;13.13;8.40;;;;;;;;;;5083105;28;21290;-73
2023/01/22 14:16:12;;;;;;;13.07;7.13;;;;;;;;;;5093861;28;20071;-73
2023/01/22 14:18:38;;;;;;;14.60;7.32;;;;;;;;;;5094511;28;20048;-73
2023/01/22 14:21:05;;;;;;;10.50;6.20;;;;;;;;;;5094275;28;20047;-73
2023/01/22 14:23:31;;;;;;;11.55;6.40;;;;;;;;;;5093100;28;20124;-74
2023/01/22 14:25:57;;;;;;;13.90;8.13;;;;;;;;;;5074789;28;20056;-73
2023/01/22 14:28:24;;;;;;;14.75;7.72;;;;;;;;;;5074017;28;20399;-74
2023/01/22 14:30:51;;;;;;;14.52;7.00;;;;;;;;;;5074085;28;20412;-74
2023/01/22 14:33:21;;;;;;;13.35;6.53;;;;;;;;;;5084115;28;20040;-75
2023/01/22 14:35:47;;;;;;;12.80;6.75;;;;;;;;;;5092745;28;20087;-73
2023/01/22 14:38:14;;;;;;;12.93;7.28;;;;;;;;;;5076015;28;20379;-74
2023/01/22 14:40:40;;;;;;;13.82;7.50;;;;;;;;;;5085236;28;20551;-73
2023/01/22 14:43:06;;;;;;;14.75;7.63;;;;;;;;;;5089271;28;20390;-73
2023/01/22 14:45:32;;;;;;;18.42;9.23;;;;;;;;;;5089112;28;20036;-73